createdAt,value
2022-10-30T00:00:42.039Z,23.00
2022-10-30T00:03:16.685Z,23.00
2022-10-30T00:05:45.714Z,23.00
2022-10-30T00:08:14.921Z,23.00
2022-10-30T00:10:42.587Z,23.00
2022-10-30T00:13:10.129Z,23.00
2022-10-30T00:15:37.904Z,23.00
2022-10-30T00:18:05.364Z,23.00
2022-10-30T00:20:32.642Z,22.90
2022-10-30T00:22:59.985Z,23.00
2022-10-30T00:25:27.415Z,23.00
2022-10-30T00:27:54.445Z,23.00
2022-10-30T00:30:21.482Z,22.90
2022-10-30T00:32:48.603Z,22.90
2022-10-30T00:35:15.697Z,22.90
2022-10-30T00:37:42.704Z,23.00
2022-10-30T00:40:19.188Z,22.90
2022-10-30T00:42:46.295Z,22.90
2022-10-30T00:45:15.276Z,22.90
2022-10-30T00:47:46.970Z,22.90
2022-10-30T00:53:06.921Z,22.90
2022-10-30T00:55:44.075Z,22.90
2022-10-30T00:58:15.337Z,22.90
2022-10-30T01:00:46.755Z,22.90
2022-10-30T01:03:14.879Z,22.90
2022-10-30T01:05:45.940Z,22.90
2022-10-30T01:08:13.020Z,22.90
2022-10-30T01:10:40.461Z,22.90
2022-10-30T01:13:07.717Z,22.90
2022-10-30T01:15:40.559Z,22.90
2022-10-30T01:18:43.573Z,22.90
2022-10-30T01:21:38.741Z,23.00
2022-10-30T01:24:39.348Z,23.00
2022-10-30T01:27:34.022Z,23.00
2022-10-30T01:30:18.438Z,22.90
2022-10-30T01:33:25.334Z,23.00
2022-10-30T01:36:15.175Z,22.90
2022-10-30T01:38:48.855Z,22.90
2022-10-30T01:41:15.930Z,22.90
2022-10-30T01:43:45.782Z,22.90
2022-10-30T01:46:42.088Z,22.90
2022-10-30T01:49:37.932Z,22.90
2022-10-30T01:52:41.585Z,22.90
2022-10-30T01:55:27.314Z,22.90
2022-10-30T01:58:20.528Z,22.90
2022-10-30T02:00:58.475Z,22.90
2022-10-30T02:03:27.570Z,22.90
2022-10-30T02:05:55.152Z,22.90
2022-10-30T02:08:22.964Z,22.90
2022-10-30T02:10:52.790Z,22.90
2022-10-30T02:13:20.355Z,22.90
2022-10-30T02:15:48.072Z,22.90
2022-10-30T02:18:15.161Z,22.90
2022-10-30T02:20:42.584Z,22.90
2022-10-30T02:23:13.616Z,22.90
2022-10-30T02:25:40.650Z,22.90
2022-10-30T02:28:07.639Z,22.90
2022-10-30T02:30:34.700Z,22.90
2022-10-30T02:33:02.413Z,22.90
2022-10-30T02:35:30.732Z,22.90
2022-10-30T02:37:57.917Z,22.90
2022-10-30T02:40:25.170Z,22.90
2022-10-30T02:42:53.638Z,22.90
2022-10-30T02:45:21.550Z,22.90
2022-10-30T02:47:48.794Z,22.90
2022-10-30T02:50:15.858Z,22.90
2022-10-30T02:52:42.999Z,22.90
2022-10-30T02:55:10.299Z,22.90
2022-10-30T02:57:37.377Z,22.90
2022-10-30T03:00:05.310Z,22.90
2022-10-30T03:02:32.321Z,22.90
2022-10-30T03:04:59.376Z,22.90
2022-10-30T03:07:26.453Z,22.90
2022-10-30T03:09:54.599Z,22.90
2022-10-30T03:12:22.359Z,22.90
2022-10-30T03:14:49.400Z,22.90
2022-10-30T03:17:16.453Z,22.90
2022-10-30T03:19:43.542Z,22.90
2022-10-30T03:22:10.589Z,22.90
2022-10-30T03:24:38.369Z,22.90
2022-10-30T03:27:05.457Z,22.90
2022-10-30T03:29:32.476Z,22.90
2022-10-30T03:31:59.465Z,22.90
2022-10-30T03:34:27.876Z,22.90
2022-10-30T03:36:55.036Z,22.90
2022-10-30T03:39:22.106Z,22.90
2022-10-30T03:41:49.224Z,22.90
2022-10-30T03:44:16.271Z,22.90
2022-10-30T03:46:43.277Z,22.90
2022-10-30T03:49:10.312Z,22.90
2022-10-30T03:51:37.340Z,22.90
2022-10-30T03:54:04.425Z,22.90
2022-10-30T03:56:31.477Z,22.90
2022-10-30T03:58:58.484Z,22.90
2022-10-30T04:01:25.602Z,22.90
2022-10-30T04:03:52.760Z,22.90
2022-10-30T04:06:19.779Z,22.90
2022-10-30T04:08:46.825Z,22.90
2022-10-30T04:11:13.871Z,22.90
2022-10-30T04:13:40.936Z,22.90
2022-10-30T04:16:08.116Z,22.90
2022-10-30T04:18:35.183Z,22.90
2022-10-30T04:21:02.546Z,22.80
2022-10-30T04:23:29.780Z,22.90
2022-10-30T04:25:56.871Z,22.90
2022-10-30T04:28:23.940Z,22.90
2022-10-30T04:30:51.002Z,22.80
2022-10-30T04:33:18.123Z,22.80
2022-10-30T04:35:45.184Z,22.80
2022-10-30T04:38:14.671Z,22.80
2022-10-30T04:40:43.519Z,22.80
2022-10-30T04:43:11.489Z,22.80
2022-10-30T04:45:39.455Z,22.80
2022-10-30T04:48:10.585Z,22.80
2022-10-30T04:50:38.243Z,22.80
2022-10-30T04:53:10.478Z,22.80
2022-10-30T04:55:37.534Z,22.90
2022-10-30T04:58:04.595Z,22.90
2022-10-30T05:00:32.480Z,22.90
2022-10-30T05:03:03.542Z,22.90
2022-10-30T05:05:32.095Z,22.90
2022-10-30T05:07:59.905Z,22.90
2022-10-30T05:10:27.460Z,22.90
2022-10-30T05:12:54.580Z,22.80
2022-10-30T05:15:22.168Z,22.80
2022-10-30T05:17:56.526Z,22.90
2022-10-30T05:20:23.803Z,22.80
2022-10-30T05:22:56.225Z,22.80
2022-10-30T05:25:24.231Z,22.80
2022-10-30T05:27:51.277Z,22.80
2022-10-30T05:30:18.251Z,22.80
2022-10-30T05:32:45.330Z,22.80
2022-10-30T05:35:12.543Z,22.90
2022-10-30T05:37:39.679Z,22.80
2022-10-30T05:40:07.264Z,22.80
2022-10-30T05:42:34.260Z,22.80
2022-10-30T05:45:02.306Z,22.80
2022-10-30T05:47:29.715Z,22.80
2022-10-30T05:49:56.690Z,22.80
2022-10-30T05:52:23.673Z,22.80
2022-10-30T05:54:50.663Z,22.80
2022-10-30T05:57:17.667Z,22.80
2022-10-30T05:59:44.714Z,22.80
2022-10-30T06:02:11.854Z,22.80
2022-10-30T06:04:38.933Z,22.80
2022-10-30T06:07:05.977Z,22.80
2022-10-30T06:09:32.972Z,22.80
2022-10-30T06:12:00.035Z,22.80
2022-10-30T06:14:27.035Z,22.80
2022-10-30T06:16:54.046Z,22.80
2022-10-30T06:19:21.188Z,22.80
2022-10-30T06:21:48.475Z,22.80
2022-10-30T06:24:15.560Z,22.80
2022-10-30T06:26:42.585Z,22.80
2022-10-30T06:29:09.596Z,22.80
2022-10-30T06:31:36.633Z,22.80
2022-10-30T06:34:03.657Z,22.80
2022-10-30T06:36:30.707Z,22.80
2022-10-30T06:38:57.826Z,22.80
2022-10-30T06:41:29.127Z,22.90
2022-10-30T06:43:57.521Z,22.80
2022-10-30T06:46:27.434Z,22.90
2022-10-30T06:48:57.975Z,22.80
2022-10-30T06:51:25.284Z,22.90
2022-10-30T06:53:52.330Z,22.90
2022-10-30T06:56:19.311Z,22.90
2022-10-30T06:58:46.316Z,22.90
2022-10-30T07:01:13.554Z,22.90
2022-10-30T07:03:40.618Z,22.90
2022-10-30T07:06:07.871Z,22.90
2022-10-30T07:08:34.876Z,22.90
2022-10-30T07:11:01.864Z,22.80
2022-10-30T07:13:28.830Z,22.90
2022-10-30T07:15:55.898Z,22.90
2022-10-30T07:18:22.918Z,22.90
2022-10-30T07:20:56.420Z,22.90
2022-10-30T07:23:23.871Z,22.90
2022-10-30T07:25:50.878Z,22.90
2022-10-30T07:28:17.877Z,22.90
2022-10-30T07:30:44.877Z,22.90
2022-10-30T07:33:11.893Z,23.00
2022-10-30T07:35:38.954Z,23.00
2022-10-30T07:38:11.296Z,23.00
2022-10-30T07:40:38.598Z,23.00
2022-10-30T07:43:06.135Z,23.00
2022-10-30T07:45:33.724Z,23.00
2022-10-30T07:48:01.265Z,23.00
2022-10-30T07:50:28.894Z,23.00
2022-10-30T07:52:56.048Z,23.10
2022-10-30T07:55:23.364Z,23.00
2022-10-30T07:57:50.727Z,23.10
2022-10-30T08:00:18.369Z,23.10
2022-10-30T08:02:50.861Z,23.10
2022-10-30T08:05:18.465Z,23.10
2022-10-30T08:07:47.138Z,23.10
2022-10-30T08:10:14.165Z,23.10
2022-10-30T08:12:44.040Z,23.20
2022-10-30T08:15:11.926Z,23.20
2022-10-30T08:17:43.812Z,23.20
2022-10-30T08:20:12.498Z,23.20
2022-10-30T08:22:51.695Z,23.30
2022-10-30T08:25:20.413Z,23.30
2022-10-30T08:28:02.204Z,23.30
2022-10-30T08:30:34.401Z,23.30
2022-10-30T08:33:03.774Z,23.40
2022-10-30T08:35:30.814Z,23.40
2022-10-30T08:37:59.074Z,23.40
2022-10-30T08:40:27.381Z,23.40
2022-10-30T08:42:56.054Z,23.40
2022-10-30T08:45:29.713Z,23.40
2022-10-30T08:48:06.358Z,23.40
2022-10-30T08:50:34.348Z,23.50
2022-10-30T08:53:05.282Z,23.50
2022-10-30T08:55:33.645Z,23.50
2022-10-30T08:58:01.151Z,23.50
2022-10-30T09:00:29.226Z,23.50
2022-10-30T09:02:56.732Z,23.50
2022-10-30T09:05:24.149Z,23.60
2022-10-30T09:07:57.848Z,23.60
2022-10-30T09:10:25.100Z,23.60
2022-10-30T09:12:57.194Z,23.60
2022-10-30T09:15:25.070Z,23.60
2022-10-30T09:17:57.718Z,23.60
2022-10-30T09:20:25.865Z,23.70
2022-10-30T09:22:52.954Z,23.70
2022-10-30T09:25:20.015Z,23.70
2022-10-30T09:27:47.274Z,23.70
2022-10-30T09:30:15.184Z,23.70
2022-10-30T09:32:42.242Z,23.70
2022-10-30T09:35:09.772Z,23.80
2022-10-30T09:37:37.717Z,23.80
2022-10-30T09:40:06.037Z,23.80
2022-10-30T09:42:46.811Z,23.80
2022-10-30T09:45:48.883Z,23.80
2022-10-30T09:48:47.531Z,23.80
2022-10-30T09:51:47.093Z,23.80
2022-10-30T09:54:39.069Z,23.80
2022-10-30T09:57:32.501Z,23.90
2022-10-30T10:00:11.112Z,23.90
2022-10-30T10:03:17.840Z,23.90
2022-10-30T10:05:55.294Z,23.90
2022-10-30T10:08:51.173Z,23.90
2022-10-30T10:11:34.218Z,24.00
2022-10-30T10:14:09.786Z,24.00
2022-10-30T10:16:40.962Z,24.00
2022-10-30T10:19:33.903Z,24.10
2022-10-30T10:22:03.386Z,24.10
2022-10-30T10:24:34.708Z,24.10
2022-10-30T10:27:41.407Z,24.10
2022-10-30T10:30:20.927Z,24.10
2022-10-30T10:33:26.754Z,24.10
2022-10-30T10:36:28.664Z,24.10
2022-10-30T10:39:23.957Z,24.10
2022-10-30T10:42:06.706Z,24.10
2022-10-30T10:45:01.481Z,24.20
2022-10-30T10:48:08.240Z,24.20
2022-10-30T10:50:41.425Z,24.20
2022-10-30T10:53:23.114Z,24.20
2022-10-30T10:55:54.020Z,24.20
2022-10-30T10:58:51.880Z,24.20
2022-10-30T11:01:23.853Z,24.20
2022-10-30T11:03:57.990Z,24.20
2022-10-30T11:06:29.146Z,24.20
2022-10-30T11:09:20.078Z,24.20
2022-10-30T11:11:52.151Z,24.20
2022-10-30T11:14:21.816Z,24.20
2022-10-30T11:17:19.295Z,24.20
2022-10-30T11:19:51.701Z,24.20
2022-10-30T11:22:36.330Z,24.20
2022-10-30T11:25:26.743Z,24.20
2022-10-30T11:27:58.518Z,24.20
2022-10-30T11:30:28.726Z,24.20
2022-10-30T11:32:57.226Z,24.20
2022-10-30T11:35:25.729Z,24.20
2022-10-30T11:38:13.834Z,24.20
2022-10-30T11:40:48.588Z,24.20
2022-10-30T11:43:20.509Z,24.20
2022-10-30T11:45:48.267Z,24.30
2022-10-30T11:48:31.636Z,24.30
2022-10-30T11:51:02.815Z,24.20
2022-10-30T11:53:48.117Z,24.20
2022-10-30T11:56:23.071Z,24.20
2022-10-30T11:58:53.583Z,24.20
2022-10-30T12:01:27.100Z,24.20
2022-10-30T12:03:55.705Z,24.20
2022-10-30T12:06:30.221Z,24.20
2022-10-30T12:09:21.085Z,24.20
2022-10-30T12:11:48.573Z,24.20
2022-10-30T12:14:24.509Z,24.20
2022-10-30T12:16:57.317Z,24.30
2022-10-30T12:19:25.798Z,24.30
2022-10-30T12:21:58.858Z,24.30
2022-10-30T12:24:32.622Z,24.30
2022-10-30T12:27:03.641Z,24.30
2022-10-30T12:30:08.267Z,24.30
2022-10-30T12:32:56.013Z,24.30
2022-10-30T12:35:46.384Z,24.30
2022-10-30T12:38:24.359Z,24.30
2022-10-30T12:41:17.167Z,24.30
2022-10-30T12:43:54.316Z,24.30
2022-10-30T12:46:41.790Z,24.30
2022-10-30T12:49:20.695Z,24.30
2022-10-30T12:52:01.966Z,24.30
2022-10-30T12:54:55.143Z,24.30
2022-10-30T12:57:31.020Z,24.30
2022-10-30T13:00:18.482Z,24.30
2022-10-30T13:02:58.312Z,24.30
2022-10-30T13:05:47.781Z,24.30
2022-10-30T13:08:38.850Z,24.30
2022-10-30T13:11:29.026Z,24.30
2022-10-30T13:13:58.320Z,24.30
2022-10-30T13:16:30.707Z,24.30
2022-10-30T13:19:00.788Z,24.30
2022-10-30T13:21:39.423Z,24.30
2022-10-30T13:24:21.580Z,24.30
2022-10-30T13:26:56.730Z,24.30
2022-10-30T13:29:33.988Z,24.30
2022-10-30T13:32:30.575Z,24.30
2022-10-30T13:35:26.684Z,24.30
2022-10-30T13:38:24.099Z,24.30
2022-10-30T13:41:30.880Z,24.20
2022-10-30T13:44:37.568Z,24.20
2022-10-30T13:47:32.770Z,24.20
2022-10-30T13:50:26.812Z,24.20
2022-10-30T13:53:00.456Z,24.20
2022-10-30T13:55:31.327Z,24.20
2022-10-30T13:58:08.610Z,24.20
2022-10-30T14:00:59.886Z,24.10
2022-10-30T14:03:40.867Z,24.10
2022-10-30T14:06:33.681Z,24.10
2022-10-30T14:09:30.620Z,24.10
2022-10-30T14:12:20.979Z,24.10
2022-10-30T14:14:48.499Z,24.10
2022-10-30T14:17:17.369Z,24.10
2022-10-30T14:20:24.105Z,24.10
2022-10-30T14:23:15.582Z,24.00
2022-10-30T14:25:43.247Z,24.10
2022-10-30T14:28:21.767Z,24.00
2022-10-30T14:31:01.208Z,24.10
2022-10-30T14:33:50.264Z,24.00
2022-10-30T14:36:24.242Z,24.00
2022-10-30T14:38:59.381Z,24.00
2022-10-30T14:42:06.353Z,24.00
2022-10-30T14:45:03.038Z,24.00
2022-10-30T14:47:55.561Z,23.90
2022-10-30T14:50:54.328Z,23.90
2022-10-30T14:54:01.079Z,23.90
2022-10-30T14:56:41.134Z,23.90
2022-10-30T14:59:24.186Z,23.80
2022-10-30T15:02:24.113Z,23.80
2022-10-30T15:05:19.101Z,23.80
2022-10-30T15:07:53.621Z,23.80
2022-10-30T15:10:29.392Z,23.80
2022-10-30T15:13:21.014Z,23.80
2022-10-30T15:16:03.228Z,23.70
2022-10-30T15:18:31.191Z,23.70
2022-10-30T15:21:05.026Z,23.70
2022-10-30T15:23:35.500Z,23.70
2022-10-30T15:26:09.506Z,23.70
2022-10-30T15:28:39.188Z,23.70
2022-10-30T15:31:23.562Z,23.60
2022-10-30T15:33:51.143Z,23.60
2022-10-30T15:36:24.580Z,23.60
2022-10-30T15:39:19.894Z,23.60
2022-10-30T15:42:04.327Z,23.60
2022-10-30T15:44:34.030Z,23.50
2022-10-30T15:47:03.480Z,23.50
2022-10-30T15:49:35.245Z,23.50
2022-10-30T15:52:06.407Z,23.40
2022-10-30T15:54:34.122Z,23.40
2022-10-30T15:59:57.260Z,23.40
2022-10-30T16:02:27.162Z,23.40
2022-10-30T16:04:54.625Z,23.30
2022-10-30T16:07:27.581Z,23.40
2022-10-30T16:10:01.397Z,23.30
2022-10-30T16:12:31.172Z,23.30
2022-10-30T16:15:02.235Z,23.30
2022-10-30T16:17:29.376Z,23.30
2022-10-30T16:20:01.108Z,23.30
2022-10-30T16:22:36.294Z,23.30
2022-10-30T16:25:07.637Z,23.30
2022-10-30T16:27:42.861Z,23.30
2022-10-30T16:30:14.332Z,23.30
2022-10-30T16:32:45.141Z,23.30
2022-10-30T16:35:13.116Z,23.30
2022-10-30T16:37:41.099Z,23.30
2022-10-30T16:40:15.522Z,23.30
2022-10-30T16:42:50.550Z,23.30
2022-10-30T16:45:46.571Z,23.20
2022-10-30T16:48:28.686Z,23.20
2022-10-30T16:51:01.133Z,23.10
2022-10-30T16:53:28.935Z,23.20
2022-10-30T16:55:58.083Z,23.20
2022-10-30T16:58:28.445Z,23.20
2022-10-30T17:00:56.532Z,23.10
2022-10-30T17:03:26.676Z,23.10
2022-10-30T17:06:00.116Z,23.10
2022-10-30T17:08:40.997Z,23.10
2022-10-30T17:11:18.848Z,23.10
2022-10-30T17:13:59.858Z,23.10
2022-10-30T17:16:32.427Z,23.10
2022-10-30T17:19:02.389Z,23.10
2022-10-30T17:21:42.985Z,23.10
2022-10-30T17:24:22.682Z,23.10
2022-10-30T17:27:01.251Z,23.00
2022-10-30T17:29:45.052Z,23.10
2022-10-30T17:32:20.403Z,23.10
2022-10-30T17:34:48.377Z,23.00
2022-10-30T17:37:15.396Z,23.00
2022-10-30T17:39:42.390Z,23.00
2022-10-30T17:42:11.362Z,23.00
2022-10-30T17:44:38.411Z,23.00
2022-10-30T17:47:20.416Z,23.00
2022-10-30T17:49:49.507Z,23.00
2022-10-30T17:52:19.125Z,23.00
2022-10-30T17:54:46.146Z,22.90
2022-10-30T17:57:15.883Z,23.00
2022-10-30T17:59:43.494Z,22.90
2022-10-30T18:02:19.211Z,23.00
2022-10-30T18:04:47.637Z,22.90
2022-10-30T18:07:16.384Z,22.90
2022-10-30T18:09:44.007Z,22.90
2022-10-30T18:12:17.253Z,22.90
2022-10-30T18:14:45.787Z,23.00
2022-10-30T18:17:13.022Z,22.90
2022-10-30T18:19:40.068Z,22.90
2022-10-30T18:22:07.100Z,22.90
2022-10-30T18:24:34.238Z,22.90
2022-10-30T18:27:01.331Z,23.00
2022-10-30T18:29:28.370Z,22.90
2022-10-30T18:31:55.417Z,22.90
2022-10-30T18:34:22.396Z,22.90
2022-10-30T18:36:49.727Z,22.90
2022-10-30T18:39:16.731Z,22.90
2022-10-30T18:41:46.501Z,22.90
2022-10-30T18:44:15.798Z,22.90
2022-10-30T18:46:43.177Z,22.90
2022-10-30T18:49:10.422Z,22.90
2022-10-30T18:51:37.612Z,22.90
2022-10-30T18:54:13.662Z,22.90
2022-10-30T18:56:40.689Z,22.90
2022-10-30T18:59:07.804Z,22.90
2022-10-30T19:01:35.764Z,22.90
2022-10-30T19:04:04.462Z,22.90
2022-10-30T19:06:34.607Z,22.90
2022-10-30T19:09:02.201Z,22.90
2022-10-30T19:11:31.313Z,22.90
2022-10-30T19:13:59.649Z,22.90
2022-10-30T19:16:27.145Z,22.90
2022-10-30T19:18:54.444Z,22.90
2022-10-30T19:21:23.453Z,22.90
2022-10-30T19:23:50.539Z,22.90
2022-10-30T19:26:17.922Z,22.90
2022-10-30T19:28:45.899Z,22.80
2022-10-30T19:31:15.045Z,22.80
2022-10-30T19:33:42.368Z,22.90
2022-10-30T19:36:31.381Z,22.80
2022-10-30T19:38:58.402Z,22.80
2022-10-30T19:41:25.535Z,22.80
2022-10-30T19:43:53.336Z,22.80
2022-10-30T19:46:20.697Z,22.80
2022-10-30T19:49:03.104Z,22.80
2022-10-30T19:51:30.149Z,22.80
2022-10-30T19:53:57.214Z,22.80
2022-10-30T19:56:24.424Z,22.80
2022-10-30T19:58:51.526Z,22.80
2022-10-30T20:01:18.719Z,22.80
2022-10-30T20:03:45.916Z,22.80
2022-10-30T20:06:13.965Z,22.80
2022-10-30T20:08:41.325Z,22.80
2022-10-30T20:11:08.789Z,22.80
2022-10-30T20:13:37.364Z,22.80
2022-10-30T20:16:05.798Z,22.80
2022-10-30T20:18:35.322Z,22.80
2022-10-30T20:21:08.468Z,22.80
2022-10-30T20:23:35.892Z,22.80
2022-10-30T20:26:17.041Z,22.80
2022-10-30T20:28:45.448Z,22.80
2022-10-30T20:31:13.325Z,22.80
2022-10-30T20:33:40.542Z,22.80
2022-10-30T20:36:07.864Z,22.80
2022-10-30T20:38:35.316Z,22.80
2022-10-30T20:41:04.406Z,22.80
2022-10-30T20:43:37.271Z,22.80
2022-10-30T20:46:06.551Z,22.80
2022-10-30T20:48:33.598Z,22.80
2022-10-30T20:51:01.714Z,22.80
2022-10-30T20:53:30.001Z,22.80
2022-10-30T20:55:57.332Z,22.80
2022-10-30T20:58:25.034Z,22.80
2022-10-30T21:00:55.659Z,22.80
2022-10-30T21:03:22.822Z,22.80
2022-10-30T21:05:58.385Z,22.70
2022-10-30T21:08:26.746Z,22.80
2022-10-30T21:10:58.397Z,22.80
2022-10-30T21:13:25.972Z,22.80
2022-10-30T21:15:53.016Z,22.70
2022-10-30T21:18:20.341Z,22.70
2022-10-30T21:20:47.389Z,22.70
2022-10-30T21:23:14.636Z,22.70
2022-10-30T21:25:41.784Z,22.70
2022-10-30T21:28:08.896Z,22.70
2022-10-30T21:30:35.976Z,22.70
2022-10-30T21:33:03.558Z,22.70
2022-10-30T21:35:31.049Z,22.70
2022-10-30T21:37:58.097Z,22.70
2022-10-30T21:40:25.132Z,22.70
2022-10-30T21:42:52.103Z,22.70
2022-10-30T21:45:19.175Z,22.70
2022-10-30T21:47:49.227Z,22.70
2022-10-30T21:50:16.308Z,22.70
2022-10-30T21:52:43.486Z,22.70
2022-10-30T21:55:10.568Z,22.70
2022-10-30T21:57:37.576Z,22.70
2022-10-30T22:00:06.184Z,22.70
2022-10-30T22:02:34.709Z,22.70
2022-10-30T22:05:01.744Z,22.70
2022-10-30T22:07:28.770Z,22.70
2022-10-30T22:09:55.805Z,22.70
2022-10-30T22:12:22.836Z,22.70
2022-10-30T22:14:49.832Z,22.70
2022-10-30T22:17:16.853Z,22.70
2022-10-30T22:19:43.836Z,22.80
2022-10-30T22:22:11.329Z,22.80
2022-10-30T22:24:38.430Z,22.70
2022-10-30T22:27:05.449Z,22.70
2022-10-30T22:29:32.574Z,22.70
2022-10-30T22:31:59.599Z,22.70
2022-10-30T22:34:26.556Z,22.70
2022-10-30T22:36:53.565Z,22.70
2022-10-30T22:39:20.565Z,22.70
2022-10-30T22:41:47.679Z,22.70
2022-10-30T22:44:18.682Z,22.70
2022-10-30T22:46:46.155Z,22.70
2022-10-30T22:49:13.211Z,22.70
2022-10-30T22:51:40.248Z,22.70
2022-10-30T22:54:12.219Z,22.70
2022-10-30T22:56:40.658Z,22.70
2022-10-30T22:59:11.300Z,22.70
2022-10-30T23:01:39.732Z,22.70
2022-10-30T23:04:09.694Z,22.70
2022-10-30T23:06:37.088Z,22.70
2022-10-30T23:09:08.158Z,22.70
2022-10-30T23:11:35.241Z,22.70
2022-10-30T23:14:02.431Z,22.70
2022-10-30T23:16:29.980Z,22.70
2022-10-30T23:18:58.909Z,22.70
2022-10-30T23:21:28.414Z,22.70
2022-10-30T23:23:56.537Z,22.70
2022-10-30T23:26:27.694Z,22.70
2022-10-30T23:28:55.906Z,22.70
2022-10-30T23:31:33.658Z,22.70
2022-10-30T23:34:03.312Z,22.60
2022-10-30T23:36:30.667Z,22.70
2022-10-30T23:39:00.373Z,22.70
2022-10-30T23:41:29.968Z,22.70
2022-10-30T23:43:59.128Z,22.70
2022-10-30T23:46:30.405Z,22.70
2022-10-30T23:48:57.860Z,22.70
2022-10-30T23:51:25.377Z,22.70
2022-10-30T23:53:53.112Z,22.70
2022-10-30T23:56:21.016Z,22.70
2022-10-30T23:58:50.296Z,22.70
